Time,TemperatureF,DewpointF,PressureIn,WindDirection,WindDirectionDegrees,WindSpeedMPH,WindSpeedGustMPH,Humidity,HourlyPrecipIn,Conditions,Clouds,dailyrainin,SoftwareType,DateUTC
2013-02-25 00:52:00,23.0,18.0,29.90,South,186,5.0,8.0,82,0.00,,,0.00,,2013-02-25 07:52:00,
2013-02-25 01:01:00,24.0,19.0,29.89,South,191,6.0,10.0,82,0.00,,,0.00,,2013-02-25 08:01:00,
2013-02-25 01:11:00,24.0,19.0,29.89,South,191,6.0,10.0,82,0.00,,,0.00,,2013-02-25 08:11:00,
2013-02-25 01:21:00,24.0,19.0,29.89,SSW,194,6.0,9.0,81,0.00,,,0.00,,2013-02-25 08:21:00,
2013-02-25 01:32:00,24.0,19.0,29.89,South,186,6.0,8.0,81,0.00,,,0.00,,2013-02-25 08:32:00,
2013-02-25 01:41:00,24.0,19.0,29.89,South,186,6.0,8.0,81,0.00,,,0.00,,2013-02-25 08:41:00,
2013-02-25 01:52:00,24.0,19.0,29.89,South,186,6.0,8.0,81,0.00,,,0.00,,2013-02-25 08:52:00,
2013-02-25 02:01:00,24.0,19.0,29.89,South,186,6.0,8.0,81,0.00,,,0.00,,2013-02-25 09:01:00,
2013-02-25 02:12:00,24.0,19.0,29.89,South,186,6.0,8.0,81,0.00,,,0.00,,2013-02-25 09:12:00,
2013-02-25 04:21:00,23.0,18.0,29.85,South,180,5.0,7.0,81,0.00,,,0.00,,2013-02-25 11:21:00,
2013-02-25 04:32:00,22.0,18.0,29.85,South,180,5.0,8.0,83,0.00,,,0.00,,2013-02-25 11:32:00,
2013-02-25 04:42:00,22.0,18.0,29.85,South,180,5.0,8.0,83,0.00,,,0.00,,2013-02-25 11:42:00,
2013-02-25 04:52:00,21.0,17.0,29.85,South,180,6.0,9.0,85,0.00,,,0.00,,2013-02-25 11:52:00,
2013-02-25 05:02:00,22.0,18.0,29.85,South,180,5.0,8.0,85,0.00,,,0.00,,2013-02-25 12:02:00,
2013-02-25 05:11:00,22.0,18.0,29.85,South,180,5.0,8.0,85,0.00,,,0.00,,2013-02-25 12:11:00,
2013-02-25 05:21:00,22.0,18.0,29.85,South,180,5.0,8.0,85,0.00,,,0.00,,2013-02-25 12:21:00,
2013-02-25 05:32:00,22.0,18.0,29.85,South,180,5.0,8.0,85,0.00,,,0.00,,2013-02-25 12:32:00,
2013-02-25 05:42:00,22.0,18.0,29.85,South,180,5.0,8.0,85,0.00,,,0.00,,2013-02-25 12:42:00,
2013-02-25 07:52:00,22.0,18.0,29.83,SSW,195,5.0,9.0,84,0.00,,,0.00,,2013-02-25 14:52:00,
2013-02-25 08:02:00,22.0,18.0,29.83,South,188,3.0,7.0,85,0.00,,,0.00,,2013-02-25 15:02:00,
2013-02-25 08:11:00,22.0,18.0,29.83,South,188,3.0,7.0,85,0.00,,,0.00,,2013-02-25 15:11:00,
2013-02-25 08:21:00,23.0,19.0,29.83,SSE,167,5.0,7.0,85,0.00,,,0.00,,2013-02-25 15:21:00,
2013-02-25 08:32:00,25.0,21.0,29.83,South,178,6.0,9.0,84,0.00,,,0.00,,2013-02-25 15:32:00,
2013-02-25 08:41:00,25.0,21.0,29.83,South,178,6.0,9.0,84,0.00,,,0.00,,2013-02-25 15:41:00,
2013-02-25 08:51:00,26.0,21.0,29.83,South,177,6.0,9.0,82,0.00,,,0.00,,2013-02-25 15:51:00,
2013-02-25 09:02:00,26.0,21.0,29.83,South,177,6.0,9.0,82,0.00,,,0.00,,2013-02-25 16:02:00,
2013-02-25 09:11:00,26.0,21.0,29.83,South,177,6.0,9.0,82,0.00,,,0.00,,2013-02-25 16:11:00,
2013-02-25 09:21:00,26.0,21.0,29.83,South,177,6.0,9.0,82,0.00,,,0.00,,2013-02-25 16:21:00,
2013-02-25 11:33:00,41.0,23.0,29.76,SW,220,9.0,15.0,49,0.00,,,0.00,,2013-02-25 18:33:00,
2013-02-25 11:42:00,41.0,23.0,29.76,SW,220,9.0,15.0,49,0.00,,,0.00,,2013-02-25 18:42:00,
2013-02-25 11:52:00,42.0,23.0,29.76,SSW,213,7.0,12.0,46,0.00,,,0.00,,2013-02-25 18:52:00,
2013-02-25 12:01:00,42.0,23.0,29.75,SSW,211,9.0,13.0,46,0.00,,,0.00,,2013-02-25 19:01:00,
2013-02-25 12:11:00,42.0,23.0,29.75,SSW,211,9.0,13.0,46,0.00,,,0.00,,2013-02-25 19:11:00,
2013-02-25 12:21:00,43.0,23.0,29.73,WSW,237,10.0,15.0,44,0.00,,,0.00,,2013-02-25 19:21:00,
2013-02-25 12:32:00,43.0,23.0,29.73,WSW,237,10.0,15.0,44,0.00,,,0.00,,2013-02-25 19:32:00,
2013-02-25 12:42:00,43.0,23.0,29.73,WSW,237,10.0,15.0,44,0.00,,,0.00,,2013-02-25 19:42:00,
2013-02-25 12:52:00,43.0,23.0,29.73,WSW,237,10.0,15.0,44,0.00,,,0.00,,2013-02-25 19:52:00,
2013-02-25 15:01:00,46.0,22.0,29.68,WSW,242,9.0,11.0,38,0.00,,,0.00,,2013-02-25 22:01:00,
2013-02-25 15:11:00,46.0,22.0,29.68,WSW,242,9.0,11.0,38,0.00,,,0.00,,2013-02-25 22:11:00,
2013-02-25 15:21:00,46.0,21.0,29.68,SSW,204,6.0,11.0,36,0.00,,,0.00,,2013-02-25 22:21:00,
2013-02-25 15:32:00,47.0,21.0,29.68,SSW,204,5.0,8.0,36,0.00,,,0.00,,2013-02-25 22:32:00,
2013-02-25 15:42:00,47.0,21.0,29.68,SSW,204,5.0,8.0,36,0.00,,,0.00,,2013-02-25 22:42:00,
2013-02-25 15:51:00,47.0,21.0,29.68,SW,232,7.0,11.0,36,0.00,,,0.00,,2013-02-25 22:51:00,
2013-02-25 16:01:00,47.0,21.0,29.68,SW,232,7.0,11.0,36,0.00,,,0.00,,2013-02-25 23:01:00,
2013-02-25 16:11:00,47.0,21.0,29.68,SW,232,7.0,11.0,36,0.00,,,0.00,,2013-02-25 23:11:00,
2013-02-25 16:22:00,47.0,21.0,29.68,SW,232,7.0,11.0,36,0.00,,,0.00,,2013-02-25 23:22:00,
2013-02-25 18:32:00,37.0,21.0,29.67,SSW,193,0.0,2.0,53,0.00,,,0.00,,2013-02-26 01:32:00,
2013-02-25 18:42:00,37.0,21.0,29.67,SSW,193,0.0,2.0,53,0.00,,,0.00,,2013-02-26 01:42:00,
2013-02-25 18:52:00,36.0,21.0,29.67,SSW,193,1.0,3.0,54,0.00,,,0.00,,2013-02-26 01:52:00,
2013-02-25 19:01:00,35.0,21.0,29.67,SSW,194,1.0,3.0,57,0.00,,,0.00,,2013-02-26 02:01:00,
2013-02-25 19:11:00,35.0,21.0,29.67,SSW,194,1.0,3.0,57,0.00,,,0.00,,2013-02-26 02:11:00,
2013-02-25 19:21:00,33.0,21.0,29.67,SW,229,2.0,4.0,61,0.00,,,0.00,,2013-02-26 02:21:00,
2013-02-25 19:32:00,32.0,21.0,29.67,WSW,238,1.0,3.0,64,0.00,,,0.00,,2013-02-26 02:32:00,
2013-02-25 19:42:00,32.0,21.0,29.67,WSW,238,1.0,3.0,64,0.00,,,0.00,,2013-02-26 02:42:00,
2013-02-25 19:52:00,32.0,21.0,29.67,WSW,238,1.0,3.0,64,0.00,,,0.00,,2013-02-26 02:52:00,
2013-02-25 20:02:00,32.0,21.0,29.67,WSW,238,1.0,3.0,64,0.00,,,0.00,,2013-02-26 03:02:00,
2013-02-25 20:11:00,32.0,21.0,29.67,WSW,238,1.0,3.0,64,0.00,,,0.00,,2013-02-26 03:11:00,
2013-02-25 22:22:00,30.0,21.0,29.69,SW,227,2.0,4.0,69,0.00,,,0.00,,2013-02-26 05:22:00,
2013-02-25 22:32:00,30.0,21.0,29.69,SW,227,0.0,2.0,68,0.00,,,0.00,,2013-02-26 05:32:00,
2013-02-25 22:43:00,30.0,21.0,29.69,SW,227,0.0,2.0,68,0.00,,,0.00,,2013-02-26 05:43:00,
2013-02-25 22:52:00,30.0,21.0,29.68,SW,227,3.0,5.0,70,0.00,,,0.00,,2013-02-26 05:52:00,
2013-02-25 23:01:00,30.0,21.0,29.68,SW,227,0.0,1.0,70,0.00,,,0.00,,2013-02-26 06:01:00,
2013-02-25 23:11:00,30.0,21.0,29.68,SW,227,0.0,1.0,70,0.00,,,0.00,,2013-02-26 06:11:00,
2013-02-25 23:21:00,30.0,21.0,29.68,SW,227,0.0,1.0,70,0.00,,,0.00,,2013-02-26 06:21:00,
2013-02-25 23:32:00,30.0,21.0,29.68,SW,227,0.0,1.0,70,0.00,,,0.00,,2013-02-26 06:32:00,
2013-02-25 23:41:00,30.0,21.0,29.68,SW,227,0.0,1.0,70,0.00,,,0.00,,2013-02-26 06:41:00,